Time,TemperatureF,DewpointF,PressureIn,WindDirection,WindDirectionDegrees,WindSpeedMPH,WindSpeedGustMPH,Humidity,HourlyPrecipIn,Conditions,Clouds,dailyrainin,SoftwareType,DateUTC
2013-05-12 00:03:00,-999.0,-99.9,29.95,North,349,0.0,0.0,100,0.00,,,0.19,,2013-05-12 04:03:00,
2013-05-12 00:12:00,51.0,51.0,29.95,North,349,0.0,0.0,100,0.00,,,0.19,,2013-05-12 04:12:00,
2013-05-12 00:22:00,51.0,51.0,29.95,North,6,0.0,0.0,100,0.00,,,0.51,,2013-05-12 04:22:00,
2013-05-12 00:33:00,51.0,51.0,29.95,North,6,0.0,0.0,100,0.00,,,0.51,,2013-05-12 04:33:00,
2013-05-12 00:43:00,52.0,52.0,29.95,North,6,0.0,0.0,100,0.00,,,0.51,,2013-05-12 04:43:00,
2013-05-12 00:52:00,52.0,52.0,29.95,North,6,0.0,0.0,100,0.00,,,0.51,,2013-05-12 04:52:00,
2013-05-12 01:02:00,51.0,51.0,29.95,North,6,0.0,0.0,100,0.00,,,0.51,,2013-05-12 05:02:00,
2013-05-12 01:12:00,51.0,51.0,29.95,North,6,0.0,0.0,100,0.00,,,0.51,,2013-05-12 05:12:00,
2013-05-12 01:22:00,51.0,51.0,29.95,North,6,0.0,0.0,100,0.01,,,0.51,,2013-05-12 05:22:00,
2013-05-12 01:32:00,51.0,51.0,29.95,ENE,69,0.0,0.0,100,0.01,,,0.51,,2013-05-12 05:32:00,
2013-05-12 01:42:00,51.0,51.0,29.95,ENE,69,0.0,0.0,100,0.01,,,0.51,,2013-05-12 05:42:00,
2013-05-12 01:52:00,51.0,51.0,29.95,WSW,248,0.0,0.0,100,0.01,,,0.51,,2013-05-12 05:52:00,
2013-05-12 02:01:00,51.0,51.0,29.96,WSW,245,0.0,0.0,100,0.01,,,0.51,,2013-05-12 06:01:00,
2013-05-12 02:11:00,51.0,51.0,29.96,WNW,302,0.0,2.0,100,0.00,,,0.51,,2013-05-12 06:11:00,
2013-05-12 02:21:00,51.0,51.0,29.96,WNW,302,0.0,2.0,100,0.00,,,0.51,,2013-05-12 06:21:00,
2013-05-12 02:32:00,50.0,49.0,29.97,NW,309,4.0,5.0,98,0.00,,,0.51,,2013-05-12 06:32:00,
2013-05-12 02:42:00,48.0,46.0,29.97,NW,305,5.0,5.0,92,0.00,,,0.51,,2013-05-12 06:42:00,
2013-05-12 02:52:00,48.0,46.0,29.97,NW,305,5.0,5.0,92,0.00,,,0.51,,2013-05-12 06:52:00,
2013-05-12 03:01:00,47.0,46.0,29.98,West,280,3.0,3.0,96,0.00,,,0.51,,2013-05-12 07:01:00,
2013-05-12 03:11:00,46.0,43.0,29.98,NW,319,3.0,4.0,90,0.00,,,0.51,,2013-05-12 07:11:00,
2013-05-12 03:22:00,46.0,43.0,29.98,NW,319,3.0,4.0,90,0.00,,,0.51,,2013-05-12 07:22:00,
2013-05-12 03:32:00,45.0,42.0,29.98,NW,307,2.0,3.0,89,0.00,,,0.51,,2013-05-12 07:32:00,
2013-05-12 03:42:00,45.0,42.0,29.98,NW,307,2.0,3.0,89,0.00,,,0.51,,2013-05-12 07:42:00,
2013-05-12 03:52:00,45.0,42.0,29.99,NNW,328,1.0,2.0,90,0.00,,,0.51,,2013-05-12 07:52:00,
2013-05-12 04:02:00,45.0,43.0,29.99,NW,319,1.0,0.0,92,0.00,,,0.51,,2013-05-12 08:02:00,
2013-05-12 04:11:00,45.0,43.0,29.99,NW,319,1.0,0.0,92,0.00,,,0.51,,2013-05-12 08:11:00,
2013-05-12 04:21:00,45.0,43.0,29.99,NNW,328,0.0,0.0,94,0.00,,,0.51,,2013-05-12 08:21:00,
2013-05-12 04:32:00,43.0,42.0,29.99,NW,315,0.0,0.0,95,0.00,,,0.51,,2013-05-12 08:32:00,
2013-05-12 04:42:00,43.0,42.0,29.99,NW,315,0.0,0.0,95,0.00,,,0.51,,2013-05-12 08:42:00,
2013-05-12 04:53:00,43.0,42.0,29.99,NW,315,0.0,0.0,95,0.00,,,0.51,,2013-05-12 08:53:00,
2013-05-12 05:01:00,42.0,40.0,30.00,NW,316,0.0,0.0,93,0.00,,,0.51,,2013-05-12 09:01:00,
2013-05-12 05:11:00,42.0,41.0,30.00,NW,316,0.0,0.0,95,0.00,,,0.51,,2013-05-12 09:11:00,
2013-05-12 05:21:00,42.0,41.0,30.00,NW,316,0.0,0.0,95,0.00,,,0.51,,2013-05-12 09:21:00,
2013-05-12 05:33:00,41.0,40.0,30.00,NW,316,0.0,0.0,97,0.00,,,0.51,,2013-05-12 09:33:00,
2013-05-12 05:42:00,41.0,40.0,30.00,NW,316,0.0,0.0,97,0.00,,,0.51,,2013-05-12 09:42:00,
2013-05-12 05:53:00,40.0,39.0,30.00,NW,316,0.0,0.0,98,0.00,,,0.51,,2013-05-12 09:53:00,
2013-05-12 06:03:00,40.0,40.0,30.00,NW,316,0.0,0.0,99,0.00,,,0.51,,2013-05-12 10:03:00,
2013-05-12 06:12:00,40.0,40.0,30.00,NW,316,0.0,0.0,99,0.00,,,0.51,,2013-05-12 10:12:00,
2013-05-12 06:22:00,40.0,40.0,30.01,NW,316,0.0,0.0,99,0.00,,,0.51,,2013-05-12 10:22:00,
2013-05-12 06:33:00,39.0,39.0,30.01,NW,316,0.0,0.0,100,0.00,,,0.51,,2013-05-12 10:33:00,
2013-05-12 06:42:00,39.0,39.0,30.01,NW,316,0.0,0.0,100,0.00,,,0.51,,2013-05-12 10:42:00,
2013-05-12 06:52:00,39.0,39.0,30.01,NW,316,0.0,0.0,100,0.00,,,0.51,,2013-05-12 10:52:00,
2013-05-12 07:02:00,39.0,39.0,30.01,NW,316,0.0,0.0,100,0.00,,,0.51,,2013-05-12 11:02:00,
2013-05-12 07:12:00,39.0,39.0,30.01,NW,316,0.0,0.0,100,0.00,,,0.51,,2013-05-12 11:12:00,
2013-05-12 07:22:00,39.0,39.0,30.02,NW,316,0.0,0.0,100,0.00,,,0.51,,2013-05-12 11:22:00,
2013-05-12 07:32:00,40.0,40.0,30.03,NW,316,0.0,0.0,100,0.00,,,0.51,,2013-05-12 11:32:00,
2013-05-12 07:42:00,41.0,41.0,30.03,NW,316,0.0,0.0,100,0.00,,,0.51,,2013-05-12 11:42:00,
2013-05-12 07:52:00,41.0,41.0,30.03,NW,316,0.0,0.0,100,0.00,,,0.51,,2013-05-12 11:52:00,
2013-05-12 08:02:00,43.0,43.0,30.03,NW,316,0.0,0.0,100,0.00,,,0.51,,2013-05-12 12:02:00,
2013-05-12 08:11:00,45.0,45.0,30.03,NW,316,0.0,0.0,99,0.00,,,0.51,,2013-05-12 12:11:00,
2013-05-12 08:22:00,45.0,45.0,30.03,NW,316,0.0,0.0,99,0.00,,,0.51,,2013-05-12 12:22:00,
2013-05-12 08:32:00,46.0,45.0,30.04,NNW,329,0.0,0.0,97,0.00,,,0.51,,2013-05-12 12:32:00,
2013-05-12 08:41:00,46.0,45.0,30.04,NNW,329,0.0,0.0,97,0.00,,,0.51,,2013-05-12 12:41:00,
2013-05-12 08:52:00,46.0,45.0,30.04,NNW,340,0.0,0.0,97,0.00,,,0.51,,2013-05-12 12:52:00,
2013-05-12 09:02:00,47.0,45.0,30.04,NNW,338,1.0,1.0,93,0.00,,,0.51,,2013-05-12 13:02:00,
2013-05-12 09:11:00,47.0,45.0,30.04,NNW,338,1.0,1.0,93,0.00,,,0.51,,2013-05-12 13:11:00,
2013-05-12 09:21:00,48.0,44.0,30.05,NNW,342,0.0,0.0,87,0.00,,,0.51,,2013-05-12 13:21:00,
2013-05-12 09:32:00,48.0,43.0,30.05,North,352,1.0,2.0,84,0.00,,,0.51,,2013-05-12 13:32:00,
2013-05-12 09:42:00,48.0,43.0,30.05,North,352,1.0,2.0,84,0.00,,,0.51,,2013-05-12 13:42:00,
2013-05-12 09:52:00,48.0,40.0,30.06,North,356,3.0,5.0,73,0.00,,,0.51,,2013-05-12 13:52:00,
2013-05-12 10:01:00,49.0,42.0,30.06,North,353,0.0,3.0,77,0.00,,,0.51,,2013-05-12 14:01:00,
2013-05-12 10:11:00,49.0,42.0,30.06,North,353,0.0,3.0,77,0.00,,,0.51,,2013-05-12 14:11:00,
2013-05-12 10:21:00,49.0,41.0,30.06,NNW,343,1.0,2.0,73,0.00,,,0.51,,2013-05-12 14:21:00,
2013-05-12 10:32:00,50.0,39.0,30.06,NW,312,4.0,8.0,67,0.00,,,0.51,,2013-05-12 14:32:00,
2013-05-12 10:42:00,50.0,40.0,30.06,NW,321,0.0,6.0,69,0.00,,,0.51,,2013-05-12 14:42:00,
2013-05-12 10:52:00,50.0,40.0,30.06,NW,321,0.0,6.0,69,0.00,,,0.51,,2013-05-12 14:52:00,
2013-05-12 11:01:00,50.0,40.0,30.06,NW,307,1.0,2.0,69,0.00,,,0.51,,2013-05-12 15:01:00,
2013-05-12 11:11:00,50.0,40.0,30.06,NW,307,1.0,2.0,69,0.00,,,0.51,,2013-05-12 15:11:00,
2013-05-12 11:21:00,52.0,39.0,30.06,NW,323,5.0,5.0,60,0.00,,,0.51,,2013-05-12 15:21:00,
2013-05-12 11:34:00,52.0,38.0,30.06,NW,304,2.0,0.0,58,0.00,,,0.51,,2013-05-12 15:34:00,
2013-05-12 11:42:00,52.0,38.0,30.06,NW,304,2.0,0.0,58,0.00,,,0.51,,2013-05-12 15:42:00,
2013-05-12 11:53:00,53.0,41.0,30.06,SW,225,1.0,0.0,63,0.00,,,0.51,,2013-05-12 15:53:00,
2013-05-12 12:02:00,53.0,42.0,30.06,SW,236,2.0,3.0,66,0.00,,,0.51,,2013-05-12 16:02:00,
2013-05-12 12:12:00,53.0,42.0,30.06,SW,236,2.0,3.0,66,0.00,,,0.51,,2013-05-12 16:12:00,
2013-05-12 12:23:00,53.0,42.0,30.07,NW,316,0.0,0.0,65,0.00,,,0.51,,2013-05-12 16:23:00,
2013-05-12 12:33:00,53.0,41.0,30.06,NNW,339,1.0,1.0,63,0.00,,,0.51,,2013-05-12 16:33:00,
2013-05-12 12:42:00,53.0,41.0,30.06,NNW,339,1.0,1.0,63,0.00,,,0.51,,2013-05-12 16:42:00,
2013-05-12 12:53:00,55.0,41.0,30.06,West,271,3.0,3.0,59,0.00,,,0.51,,2013-05-12 16:53:00,
2013-05-12 13:02:00,55.0,43.0,30.07,NW,322,4.0,5.0,65,0.00,,,0.51,,2013-05-12 17:02:00,
2013-05-12 13:12:00,54.0,37.0,30.06,NNW,329,4.0,4.0,53,0.00,,,0.51,,2013-05-12 17:12:00,
2013-05-12 13:22:00,54.0,37.0,30.06,NNW,329,4.0,4.0,53,0.00,,,0.51,,2013-05-12 17:22:00,
2013-05-12 13:32:00,55.0,43.0,30.07,WSW,255,3.0,6.0,64,0.00,,,0.51,,2013-05-12 17:32:00,
2013-05-12 13:42:00,55.0,39.0,30.07,WNW,298,4.0,4.0,54,0.00,,,0.51,,2013-05-12 17:42:00,
2013-05-12 13:53:00,55.0,39.0,30.07,WNW,298,4.0,4.0,54,0.00,,,0.51,,2013-05-12 17:53:00,
2013-05-12 14:01:00,55.0,39.0,30.07,West,280,3.0,3.0,55,0.00,,,0.51,,2013-05-12 18:01:00,
2013-05-12 14:12:00,55.0,39.0,30.07,West,280,3.0,3.0,55,0.00,,,0.51,,2013-05-12 18:12:00,
2013-05-12 14:22:00,54.0,38.0,30.07,NNW,343,4.0,4.0,55,0.00,,,0.51,,2013-05-12 18:22:00,
2013-05-12 14:32:00,55.0,38.0,30.07,SSE,149,3.0,3.0,52,0.00,,,0.51,,2013-05-12 18:32:00,
2013-05-12 14:42:00,55.0,38.0,30.07,SSE,149,3.0,3.0,52,0.00,,,0.51,,2013-05-12 18:42:00,
2013-05-12 14:52:00,57.0,40.0,30.07,West,277,3.0,3.0,52,0.00,,,0.51,,2013-05-12 18:52:00,
2013-05-12 15:01:00,56.0,36.0,30.07,NNW,333,3.0,3.0,47,0.00,,,0.51,,2013-05-12 19:01:00,
2013-05-12 15:11:00,56.0,36.0,30.07,NNW,333,3.0,3.0,47,0.00,,,0.51,,2013-05-12 19:11:00,
2013-05-12 15:22:00,57.0,38.0,30.07,West,266,2.0,2.0,48,0.00,,,0.51,,2013-05-12 19:22:00,
2013-05-12 15:32:00,57.0,37.0,30.07,NW,316,2.0,3.0,47,0.00,,,0.51,,2013-05-12 19:32:00,
2013-05-12 15:42:00,57.0,38.0,30.07,SSE,163,5.0,5.0,48,0.00,,,0.51,,2013-05-12 19:42:00,
2013-05-12 15:52:00,57.0,38.0,30.07,SSE,163,5.0,5.0,48,0.00,,,0.51,,2013-05-12 19:52:00,
2013-05-12 16:02:00,58.0,37.0,30.07,NNW,345,2.0,3.0,46,0.00,,,0.51,,2013-05-12 20:02:00,
2013-05-12 16:11:00,57.0,35.0,30.07,NW,322,4.0,6.0,43,0.00,,,0.51,,2013-05-12 20:11:00,
2013-05-12 16:21:00,57.0,35.0,30.07,NW,322,4.0,6.0,43,0.00,,,0.51,,2013-05-12 20:21:00,
2013-05-12 16:32:00,57.0,36.0,30.06,NE,35,3.0,3.0,45,0.00,,,0.51,,2013-05-12 20:32:00,
2013-05-12 16:42:00,57.0,36.0,30.06,NE,35,3.0,3.0,45,0.00,,,0.51,,2013-05-12 20:42:00,
2013-05-12 16:52:00,57.0,36.0,30.06,ESE,110,0.0,1.0,45,0.00,,,0.51,,2013-05-12 20:52:00,
2013-05-12 17:01:00,57.0,38.0,30.06,NW,323,4.0,4.0,48,0.00,,,0.51,,2013-05-12 21:01:00,
2013-05-12 17:11:00,55.0,33.0,30.05,NW,318,4.0,6.0,43,0.00,,,0.51,,2013-05-12 21:11:00,
2013-05-12 17:21:00,55.0,33.0,30.05,NW,318,4.0,6.0,43,0.00,,,0.51,,2013-05-12 21:21:00,
2013-05-12 17:33:00,56.0,37.0,30.06,NW,311,4.0,4.0,48,0.00,,,0.51,,2013-05-12 21:33:00,
2013-05-12 17:42:00,56.0,37.0,30.06,NW,311,4.0,4.0,48,0.00,,,0.51,,2013-05-12 21:42:00,
2013-05-12 17:53:00,57.0,38.0,30.06,SSW,198,2.0,0.0,49,0.00,,,0.51,,2013-05-12 21:53:00,
2013-05-12 18:02:00,56.0,37.0,30.06,WSW,238,3.0,3.0,49,0.00,,,0.51,,2013-05-12 22:02:00,
2013-05-12 18:12:00,56.0,38.0,30.07,NNW,336,1.0,0.0,50,0.00,,,0.51,,2013-05-12 22:12:00,
2013-05-12 18:23:00,56.0,38.0,30.07,NNW,336,1.0,0.0,50,0.00,,,0.51,,2013-05-12 22:23:00,
2013-05-12 18:33:00,55.0,37.0,30.06,West,271,1.0,0.0,50,0.00,,,0.51,,2013-05-12 22:33:00,
2013-05-12 18:42:00,55.0,37.0,30.06,West,271,1.0,0.0,50,0.00,,,0.51,,2013-05-12 22:42:00,
2013-05-12 18:52:00,54.0,37.0,30.06,NNW,340,2.0,3.0,53,0.00,,,0.51,,2013-05-12 22:52:00,
2013-05-12 19:02:00,54.0,37.0,30.06,WNW,283,2.0,2.0,52,0.00,,,0.51,,2013-05-12 23:02:00,
2013-05-12 19:12:00,54.0,37.0,30.06,NNW,345,1.0,2.0,52,0.00,,,0.51,,2013-05-12 23:12:00,
2013-05-12 19:22:00,54.0,37.0,30.06,NNW,345,1.0,2.0,52,0.00,,,0.51,,2013-05-12 23:22:00,
2013-05-12 19:32:00,53.0,38.0,30.07,North,4,0.0,1.0,57,0.00,,,0.51,,2013-05-12 23:32:00,
2013-05-12 19:42:00,53.0,38.0,30.07,North,4,0.0,1.0,57,0.00,,,0.51,,2013-05-12 23:42:00,
2013-05-12 19:52:00,53.0,36.0,30.06,North,1,2.0,2.0,53,0.00,,,0.51,,2013-05-12 23:52:00,
2013-05-12 20:01:00,53.0,37.0,30.07,NW,322,1.0,3.0,55,0.00,,,0.51,,2013-05-13 00:01:00,
2013-05-12 20:11:00,53.0,37.0,30.07,NW,322,1.0,3.0,55,0.00,,,0.51,,2013-05-13 00:11:00,
2013-05-12 20:21:00,52.0,38.0,30.07,NW,312,1.0,0.0,59,0.00,,,0.51,,2013-05-13 00:21:00,
2013-05-12 20:32:00,51.0,38.0,30.07,NW,321,1.0,0.0,60,0.00,,,0.51,,2013-05-13 00:32:00,
2013-05-12 20:42:00,50.0,38.0,30.08,NW,325,0.0,0.0,62,0.00,,,0.51,,2013-05-13 00:42:00,
2013-05-12 20:52:00,50.0,38.0,30.08,NW,325,0.0,0.0,62,0.00,,,0.51,,2013-05-13 00:52:00,
2013-05-12 21:01:00,49.0,39.0,30.08,NW,325,0.0,0.0,68,0.00,,,0.51,,2013-05-13 01:01:00,
2013-05-12 21:11:00,49.0,39.0,30.08,NW,325,0.0,0.0,68,0.00,,,0.51,,2013-05-13 01:11:00,
2013-05-12 21:22:00,47.0,37.0,30.08,NW,325,0.0,0.0,68,0.00,,,0.51,,2013-05-13 01:22:00,
2013-05-12 21:31:00,47.0,38.0,30.08,NW,325,0.0,0.0,72,0.00,,,0.51,,2013-05-13 01:31:00,
2013-05-12 21:42:00,47.0,38.0,30.08,NW,325,0.0,0.0,72,0.00,,,0.51,,2013-05-13 01:42:00,
2013-05-12 21:52:00,46.0,37.0,30.09,NW,325,0.0,0.0,71,0.00,,,0.51,,2013-05-13 01:52:00,
2013-05-12 22:02:00,45.0,37.0,30.09,NW,325,0.0,0.0,73,0.00,,,0.51,,2013-05-13 02:02:00,
2013-05-12 22:11:00,45.0,37.0,30.09,NW,325,0.0,0.0,73,0.00,,,0.51,,2013-05-13 02:11:00,
2013-05-12 22:21:00,45.0,38.0,30.10,NW,325,0.0,0.0,75,0.00,,,0.51,,2013-05-13 02:21:00,
2013-05-12 22:32:00,44.0,38.0,30.11,NW,325,0.0,0.0,80,0.00,,,0.51,,2013-05-13 02:32:00,
2013-05-12 22:42:00,44.0,38.0,30.11,NW,325,0.0,0.0,80,0.00,,,0.51,,2013-05-13 02:42:00,
2013-05-12 22:52:00,43.0,37.0,30.11,NW,325,0.0,0.0,80,0.00,,,0.51,,2013-05-13 02:52:00,
2013-05-12 23:02:00,43.0,38.0,30.11,NW,325,0.0,0.0,84,0.00,,,0.51,,2013-05-13 03:02:00,
2013-05-12 23:11:00,43.0,38.0,30.11,NW,325,0.0,0.0,84,0.00,,,0.51,,2013-05-13 03:11:00,
2013-05-12 23:21:00,42.0,39.0,30.11,NW,325,0.0,0.0,89,0.00,,,0.51,,2013-05-13 03:21:00,
2013-05-12 23:32:00,42.0,40.0,30.11,NW,325,0.0,0.0,91,0.00,,,0.51,,2013-05-13 03:32:00,
2013-05-12 23:42:00,42.0,40.0,30.11,NW,325,0.0,0.0,91,0.00,,,0.51,,2013-05-13 03:42:00,
2013-05-12 23:53:00,42.0,39.0,30.11,NW,325,0.0,0.0,88,0.00,,,0.51,,2013-05-13 03:53:00,